createdAt,value
2023-03-18T00:01:40.262Z,35.49
2023-03-18T00:04:10.181Z,35.77
2023-03-18T00:06:38.963Z,35.32
2023-03-18T00:09:08.200Z,35.26
2023-03-18T00:11:37.071Z,35.67
2023-03-18T00:14:06.390Z,35.18
2023-03-18T00:16:38.980Z,35.16
2023-03-18T00:19:21.233Z,34.87
2023-03-18T00:21:57.051Z,35.07
2023-03-18T00:24:28.624Z,35.18
2023-03-18T00:26:58.039Z,34.79
2023-03-18T00:29:26.927Z,34.81
2023-03-18T00:31:55.607Z,34.73
2023-03-18T00:34:24.468Z,34.75
2023-03-18T00:36:57.502Z,34.97
2023-03-18T00:39:30.117Z,35.24
2023-03-18T00:41:59.193Z,34.85
2023-03-18T00:44:28.101Z,34.81
2023-03-18T00:46:57.459Z,34.80
2023-03-18T00:49:27.025Z,34.45
2023-03-18T00:51:55.834Z,34.33
2023-03-18T00:54:25.355Z,34.17
2023-03-18T00:56:54.617Z,33.79
2023-03-18T00:59:24.461Z,33.24
2023-03-18T01:01:54.177Z,32.68
2023-03-18T01:04:23.748Z,32.89
2023-03-18T01:06:54.385Z,32.51
2023-03-18T01:09:24.222Z,32.32
2023-03-18T01:11:54.194Z,32.10
2023-03-18T01:14:22.965Z,31.93
2023-03-18T01:16:51.867Z,31.60
2023-03-18T01:19:20.974Z,30.89
2023-03-18T01:21:51.047Z,30.84
2023-03-18T01:24:20.002Z,30.35
2023-03-18T01:26:49.104Z,29.88
2023-03-18T01:29:18.713Z,29.91
2023-03-18T01:31:48.458Z,29.54
2023-03-18T01:34:19.716Z,29.56
2023-03-18T01:36:52.299Z,28.90
2023-03-18T01:39:24.194Z,28.77
2023-03-18T01:41:53.967Z,28.21
2023-03-18T01:44:40.974Z,27.82
2023-03-18T01:47:12.052Z,27.70
2023-03-18T01:49:49.226Z,27.60
2023-03-18T01:52:22.572Z,27.40
2023-03-18T01:55:03.550Z,26.69
2023-03-18T01:57:34.573Z,26.93
2023-03-18T02:00:07.664Z,26.52
2023-03-18T02:02:45.173Z,26.42
2023-03-18T02:05:19.569Z,26.87
2023-03-18T02:07:48.383Z,26.00
2023-03-18T02:10:29.093Z,26.29
2023-03-18T02:13:07.455Z,25.85
2023-03-18T02:15:59.352Z,25.47
2023-03-18T02:18:34.335Z,24.68
2023-03-18T02:21:21.650Z,24.74
2023-03-18T02:24:15.039Z,24.36
2023-03-18T02:26:57.617Z,24.21
2023-03-18T02:29:37.494Z,23.45
2023-03-18T02:32:15.975Z,23.15
2023-03-18T02:34:46.274Z,23.19
2023-03-18T02:37:16.127Z,23.02
2023-03-18T02:39:46.147Z,22.82
2023-03-18T02:42:16.300Z,22.48
2023-03-18T02:44:51.840Z,22.23
2023-03-18T02:47:45.325Z,21.68
2023-03-18T02:50:15.331Z,21.66
2023-03-18T02:52:44.775Z,21.32
2023-03-18T02:55:15.697Z,21.23
2023-03-18T02:57:44.537Z,21.44
2023-03-18T03:00:14.313Z,20.94
2023-03-18T03:02:44.149Z,20.76
2023-03-18T03:05:13.043Z,20.54
2023-03-18T03:07:43.082Z,20.13
2023-03-18T03:10:14.318Z,20.37
2023-03-18T03:12:44.777Z,20.16
2023-03-18T03:15:14.980Z,20.04
2023-03-18T03:17:50.101Z,19.83
2023-03-18T03:20:19.915Z,19.54
2023-03-18T03:22:49.009Z,19.35
2023-03-18T03:25:20.042Z,18.99
2023-03-18T03:27:50.435Z,18.51
2023-03-18T03:30:19.938Z,18.59
2023-03-18T03:32:49.762Z,18.43
2023-03-18T03:35:20.536Z,18.35
2023-03-18T03:37:49.801Z,18.28
2023-03-18T03:40:21.001Z,18.40
2023-03-18T03:42:52.607Z,18.36
2023-03-18T03:45:21.394Z,18.06
2023-03-18T03:47:52.344Z,18.04
2023-03-18T03:50:22.208Z,17.64
2023-03-18T03:52:51.233Z,17.57
2023-03-18T03:55:22.371Z,17.72
2023-03-18T03:57:52.188Z,18.10
2023-03-18T04:00:24.822Z,17.60
2023-03-18T04:02:53.963Z,17.46
2023-03-18T04:05:25.802Z,17.53
2023-03-18T04:07:56.169Z,17.08
2023-03-18T04:10:37.198Z,16.96
2023-03-18T04:13:09.475Z,16.78
2023-03-18T04:15:39.411Z,16.95
2023-03-18T04:18:12.410Z,16.44
2023-03-18T04:20:42.097Z,16.35
2023-03-18T04:23:29.390Z,16.57
2023-03-18T04:25:59.147Z,16.14
2023-03-18T04:28:28.036Z,16.17
2023-03-18T04:30:57.020Z,15.97
2023-03-18T04:33:26.180Z,15.85
2023-03-18T04:35:54.958Z,15.84
2023-03-18T04:38:24.193Z,15.59
2023-03-18T04:40:54.707Z,15.43
2023-03-18T04:43:24.353Z,15.64
2023-03-18T04:45:53.729Z,15.58
2023-03-18T04:48:23.026Z,15.80
2023-03-18T04:50:53.118Z,15.40
2023-03-18T04:53:26.995Z,14.75
2023-03-18T04:55:56.421Z,14.51
2023-03-18T04:58:31.617Z,14.28
2023-03-18T05:01:14.840Z,14.25
2023-03-18T05:03:44.823Z,14.42
2023-03-18T05:06:23.216Z,14.64
2023-03-18T05:09:07.250Z,14.37
2023-03-18T05:11:37.412Z,14.20
2023-03-18T05:14:18.109Z,14.09
2023-03-18T05:16:49.894Z,13.86
2023-03-18T05:19:20.384Z,14.17
2023-03-18T05:21:57.838Z,14.16
2023-03-18T05:24:27.906Z,13.52
2023-03-18T05:26:58.049Z,13.65
2023-03-18T05:29:33.967Z,14.07
2023-03-18T05:32:17.313Z,13.61
2023-03-18T05:34:49.701Z,13.75
2023-03-18T05:37:19.393Z,13.80
2023-03-18T05:39:58.916Z,13.98
2023-03-18T05:42:28.804Z,13.71
2023-03-18T05:44:58.554Z,13.44
2023-03-18T05:47:28.608Z,13.32
2023-03-18T05:50:15.360Z,13.63
2023-03-18T05:52:45.330Z,13.98
2023-03-18T05:55:21.463Z,13.95
2023-03-18T05:57:50.660Z,14.09
2023-03-18T06:00:21.458Z,13.77
2023-03-18T06:02:55.240Z,13.83
2023-03-18T06:05:25.057Z,13.49
2023-03-18T06:07:55.555Z,13.63
2023-03-18T06:10:25.946Z,13.71
2023-03-18T06:12:58.774Z,14.14
2023-03-18T06:15:28.436Z,14.13
2023-03-18T06:18:00.402Z,13.88
2023-03-18T06:20:30.262Z,14.22
2023-03-18T06:23:00.580Z,13.98
2023-03-18T06:25:30.263Z,13.82
2023-03-18T06:27:59.960Z,13.63
2023-03-18T06:30:30.998Z,14.02
2023-03-18T06:33:00.319Z,13.62
2023-03-18T06:35:29.616Z,13.71
2023-03-18T06:37:58.892Z,13.79
2023-03-18T06:40:28.534Z,13.24
2023-03-18T06:43:00.040Z,13.63
2023-03-18T06:45:39.106Z,13.57
2023-03-18T06:48:11.166Z,13.60
2023-03-18T06:50:43.759Z,13.74
2023-03-18T06:53:25.117Z,13.64
2023-03-18T06:55:57.465Z,13.74
2023-03-18T06:58:34.884Z,13.66
2023-03-18T07:01:09.898Z,13.34
2023-03-18T07:03:44.514Z,13.79
2023-03-18T07:06:17.257Z,13.89
2023-03-18T07:08:46.737Z,14.13
2023-03-18T07:11:17.393Z,13.99
2023-03-18T07:13:47.786Z,14.54
2023-03-18T07:16:24.391Z,14.31
2023-03-18T07:18:54.173Z,14.46
2023-03-18T07:21:24.262Z,14.10
2023-03-18T07:23:55.825Z,13.91
2023-03-18T07:26:27.169Z,13.79
2023-03-18T07:28:56.189Z,14.21
2023-03-18T07:31:26.141Z,14.64
2023-03-18T07:33:55.113Z,14.57
2023-03-18T07:36:24.991Z,14.40
2023-03-18T07:38:53.669Z,14.19
2023-03-18T07:41:22.464Z,14.28
2023-03-18T07:43:51.375Z,14.60
2023-03-18T07:46:20.186Z,15.04
2023-03-18T07:48:50.462Z,14.93
2023-03-18T07:51:19.559Z,14.71
2023-03-18T07:53:48.502Z,14.82
2023-03-18T07:56:17.389Z,14.81
2023-03-18T07:58:46.432Z,14.84
2023-03-18T08:01:19.184Z,14.99
2023-03-18T08:03:48.873Z,15.00
2023-03-18T08:06:19.696Z,15.06
2023-03-18T08:08:52.521Z,15.34
2023-03-18T08:11:24.875Z,15.20
2023-03-18T08:13:57.355Z,15.07
2023-03-18T08:16:31.205Z,15.29
2023-03-18T08:19:04.626Z,15.46
2023-03-18T08:21:38.126Z,15.47
2023-03-18T08:24:10.777Z,15.46
2023-03-18T08:26:42.775Z,15.31
2023-03-18T08:29:15.199Z,15.74
2023-03-18T08:31:47.181Z,15.92
2023-03-18T08:34:20.676Z,15.67
2023-03-18T08:36:52.885Z,15.91
2023-03-18T08:39:25.867Z,16.27
2023-03-18T08:41:59.132Z,16.27
2023-03-18T08:44:31.357Z,16.48
2023-03-18T08:47:04.565Z,16.84
2023-03-18T08:49:34.215Z,17.12
2023-03-18T08:52:05.152Z,17.74
2023-03-18T08:54:34.186Z,18.83
2023-03-18T08:57:04.275Z,19.89
2023-03-18T08:59:34.188Z,20.62
2023-03-18T09:02:06.017Z,21.41
2023-03-18T09:04:37.632Z,21.86
2023-03-18T09:07:07.580Z,22.13
2023-03-18T09:09:43.606Z,22.13
2023-03-18T09:12:14.755Z,22.54
2023-03-18T09:14:44.413Z,22.95
2023-03-18T09:17:15.245Z,22.81
2023-03-18T09:19:44.178Z,23.05
2023-03-18T09:22:13.054Z,23.42
2023-03-18T09:24:42.198Z,23.42
2023-03-18T09:27:11.385Z,23.70
2023-03-18T09:29:40.304Z,23.76
2023-03-18T09:32:09.271Z,24.16
2023-03-18T09:34:38.233Z,24.41
2023-03-18T09:37:07.125Z,24.56
2023-03-18T09:39:35.866Z,24.80
2023-03-18T09:42:43.459Z,24.71
2023-03-18T09:45:22.111Z,24.72
2023-03-18T09:48:09.164Z,25.12
2023-03-18T09:50:51.621Z,25.21
2023-03-18T09:54:04.967Z,25.42
2023-03-18T09:56:36.561Z,25.91
2023-03-18T09:59:17.872Z,26.06
2023-03-18T10:01:54.927Z,25.95
2023-03-18T10:04:32.186Z,26.23
2023-03-18T10:07:19.065Z,26.28
2023-03-18T10:09:53.012Z,26.70
2023-03-18T10:12:40.333Z,26.42
2023-03-18T10:15:24.420Z,26.32
2023-03-18T10:18:05.830Z,26.21
2023-03-18T10:21:16.364Z,26.33
2023-03-18T10:23:50.668Z,26.15
2023-03-18T10:26:47.655Z,26.33
2023-03-18T10:29:41.218Z,26.84
2023-03-18T10:32:22.251Z,26.81
2023-03-18T10:35:16.100Z,26.95
2023-03-18T10:37:57.179Z,27.14
2023-03-18T10:40:26.341Z,26.97
2023-03-18T10:42:57.042Z,27.10
2023-03-18T10:45:29.193Z,26.96
2023-03-18T10:48:09.497Z,26.98
2023-03-18T10:50:47.055Z,27.49
2023-03-18T10:53:19.753Z,27.24
2023-03-18T10:55:57.603Z,27.26
2023-03-18T10:58:30.109Z,27.98
2023-03-18T11:01:00.358Z,28.09
2023-03-18T11:03:36.114Z,27.74
2023-03-18T11:06:07.844Z,27.78
2023-03-18T11:08:41.575Z,28.16
2023-03-18T11:11:22.617Z,27.99
2023-03-18T11:13:54.139Z,28.08
2023-03-18T11:16:23.825Z,28.43
2023-03-18T11:18:53.606Z,28.25
2023-03-18T11:21:24.521Z,28.75
2023-03-18T11:24:12.156Z,28.78
2023-03-18T11:26:47.622Z,29.21
2023-03-18T11:29:21.131Z,28.63
2023-03-18T11:32:01.328Z,28.80
2023-03-18T11:34:33.258Z,29.55
2023-03-18T11:37:06.191Z,29.48
2023-03-18T11:39:40.734Z,29.10
2023-03-18T11:42:22.581Z,29.86
2023-03-18T11:44:57.591Z,29.09
2023-03-18T11:47:31.243Z,29.38
2023-03-18T11:50:02.905Z,30.13
2023-03-18T11:52:50.536Z,29.69
2023-03-18T11:55:27.677Z,29.66
2023-03-18T11:58:34.017Z,29.70
2023-03-18T12:01:35.063Z,29.96
2023-03-18T12:04:31.909Z,29.85
2023-03-18T12:07:04.397Z,29.56
2023-03-18T12:09:39.327Z,29.89
2023-03-18T12:12:47.189Z,29.54
2023-03-18T12:15:37.721Z,29.95
2023-03-18T12:18:09.283Z,29.78
2023-03-18T12:20:46.321Z,30.42
2023-03-18T12:23:33.504Z,30.20
2023-03-18T12:26:22.100Z,30.33
2023-03-18T12:29:10.173Z,30.58
2023-03-18T12:31:54.033Z,30.71
2023-03-18T12:34:34.814Z,30.34
2023-03-18T12:37:19.901Z,30.77
2023-03-18T12:39:54.852Z,30.62
2023-03-18T12:42:50.442Z,30.76
2023-03-18T12:45:24.360Z,30.73
2023-03-18T12:48:05.870Z,30.81
2023-03-18T12:50:42.791Z,30.72
2023-03-18T12:53:38.965Z,30.46
2023-03-18T12:56:30.781Z,30.70
2023-03-18T12:59:05.989Z,31.14
2023-03-18T13:01:50.868Z,30.72
2023-03-18T13:04:25.145Z,31.49
2023-03-18T13:07:16.532Z,31.44
2023-03-18T13:09:53.351Z,31.43
2023-03-18T13:12:27.550Z,31.53
2023-03-18T13:15:17.322Z,31.20
2023-03-18T13:17:49.845Z,31.60
2023-03-18T13:20:26.329Z,31.64
2023-03-18T13:23:14.692Z,31.24
2023-03-18T13:26:13.145Z,31.39
2023-03-18T13:28:55.070Z,31.90
2023-03-18T13:32:01.572Z,32.04
2023-03-18T13:34:30.052Z,31.86
2023-03-18T13:37:12.993Z,32.15
2023-03-18T13:40:18.736Z,32.21
2023-03-18T13:42:51.168Z,32.33
2023-03-18T13:45:21.142Z,32.45
2023-03-18T13:48:00.141Z,32.21
2023-03-18T13:50:38.536Z,32.46
2023-03-18T13:53:25.185Z,32.87
2023-03-18T13:55:55.778Z,32.71
2023-03-18T13:58:32.205Z,32.82
2023-03-18T14:01:02.481Z,32.88
2023-03-18T14:03:46.067Z,33.04
2023-03-18T14:06:18.401Z,32.97
2023-03-18T14:08:51.405Z,32.91
2023-03-18T14:11:21.153Z,33.09
2023-03-18T14:13:56.371Z,33.00
2023-03-18T14:16:53.392Z,33.02
2023-03-18T14:19:33.081Z,33.12
2023-03-18T14:22:28.520Z,33.23
2023-03-18T14:25:18.491Z,33.02
2023-03-18T14:27:56.228Z,33.22
2023-03-18T14:30:30.872Z,33.04
2023-03-18T14:33:03.809Z,33.43
2023-03-18T14:35:48.459Z,33.49
2023-03-18T14:38:38.978Z,33.56
2023-03-18T14:41:18.321Z,33.60
2023-03-18T14:44:03.113Z,33.81
2023-03-18T14:46:41.854Z,33.74
2023-03-18T14:49:47.715Z,34.12
2023-03-18T14:52:39.324Z,34.07
2023-03-18T14:55:29.156Z,34.10
2023-03-18T14:57:58.254Z,34.41
2023-03-18T15:00:32.071Z,34.22
2023-03-18T15:03:15.442Z,34.00
2023-03-18T15:05:47.065Z,34.16
2023-03-18T15:08:19.758Z,34.31
2023-03-18T15:10:51.343Z,34.22
2023-03-18T15:13:23.676Z,34.50
2023-03-18T15:15:56.980Z,34.58
2023-03-18T15:18:38.677Z,34.81
2023-03-18T15:21:17.936Z,34.97
2023-03-18T15:24:01.210Z,35.10
2023-03-18T15:26:40.884Z,34.74
2023-03-18T15:29:32.103Z,34.97
2023-03-18T15:32:10.644Z,34.79
2023-03-18T15:34:44.133Z,35.15
2023-03-18T15:37:36.291Z,35.16
2023-03-18T15:40:23.478Z,35.17
2023-03-18T15:42:57.690Z,35.19
2023-03-18T15:45:30.001Z,35.28
2023-03-18T15:48:17.520Z,35.59
2023-03-18T15:50:56.349Z,35.71
2023-03-18T15:53:34.117Z,35.61
2023-03-18T15:56:20.492Z,36.14
2023-03-18T15:58:58.871Z,35.69
2023-03-18T16:01:28.443Z,35.87
2023-03-18T16:03:58.009Z,36.04
2023-03-18T16:06:27.600Z,35.72
2023-03-18T16:08:57.458Z,36.07
